sensor_id;sensor_type;location;lat;lon;timestamp;P1;durP1;ratioP1;P2;durP2;ratioP2
42668;SDS011;29384;42.028;21.388;2023-06-05T00:01:48;4.70;;;4.32;;
42668;SDS011;29384;42.028;21.388;2023-06-05T00:04:15;5.07;;;3.92;;
42668;SDS011;29384;42.028;21.388;2023-06-05T00:09:43;8.50;;;4.78;;
42668;SDS011;29384;42.028;21.388;2023-06-05T00:12:09;9.82;;;5.15;;
42668;SDS011;29384;42.028;21.388;2023-06-05T00:14:34;10.00;;;5.35;;
42668;SDS011;29384;42.028;21.388;2023-06-05T00:17:00;6.80;;;4.55;;
42668;SDS011;29384;42.028;21.388;2023-06-05T00:19:26;8.30;;;4.97;;
42668;SDS011;29384;42.028;21.388;2023-06-05T00:24:54;7.90;;;5.93;;
42668;SDS011;29384;42.028;21.388;2023-06-05T00:27:19;5.72;;;5.20;;
42668;SDS011;29384;42.028;21.388;2023-06-05T00:29:45;13.43;;;6.18;;
42668;SDS011;29384;42.028;21.388;2023-06-05T00:32:10;6.38;;;4.63;;
42668;SDS011;29384;42.028;21.388;2023-06-05T00:34:35;17.80;;;4.75;;
42668;SDS011;29384;42.028;21.388;2023-06-05T00:40:04;10.35;;;5.63;;
42668;SDS011;29384;42.028;21.388;2023-06-05T00:42:30;7.53;;;5.82;;
42668;SDS011;29384;42.028;21.388;2023-06-05T00:44:55;11.18;;;4.82;;
42668;SDS011;29384;42.028;21.388;2023-06-05T00:47:20;7.45;;;5.60;;
42668;SDS011;29384;42.028;21.388;2023-06-05T00:49:46;6.78;;;4.18;;
42668;SDS011;29384;42.028;21.388;2023-06-05T00:55:32;16.48;;;5.57;;
42668;SDS011;29384;42.028;21.388;2023-06-05T00:57:59;15.63;;;7.47;;
42668;SDS011;29384;42.028;21.388;2023-06-05T01:00:25;7.97;;;6.45;;
42668;SDS011;29384;42.028;21.388;2023-06-05T01:02:51;13.70;;;7.75;;
42668;SDS011;29384;42.028;21.388;2023-06-05T01:05:18;10.40;;;7.40;;
42668;SDS011;29384;42.028;21.388;2023-06-05T01:07:43;10.18;;;7.15;;
42668;SDS011;29384;42.028;21.388;2023-06-05T01:10:09;12.75;;;6.70;;
42668;SDS011;29384;42.028;21.388;2023-06-05T01:12:53;10.82;;;6.25;;
42668;SDS011;29384;42.028;21.388;2023-06-05T01:15:21;14.85;;;6.57;;
42668;SDS011;29384;42.028;21.388;2023-06-05T01:17:53;13.13;;;6.10;;
42668;SDS011;29384;42.028;21.388;2023-06-05T01:20:19;16.92;;;6.28;;
42668;SDS011;29384;42.028;21.388;2023-06-05T01:22:51;6.55;;;5.60;;
42668;SDS011;29384;42.028;21.388;2023-06-05T01:25:17;6.10;;;5.28;;
42668;SDS011;29384;42.028;21.388;2023-06-05T01:30:18;6.05;;;4.25;;
42668;SDS011;29384;42.028;21.388;2023-06-05T01:38:05;7.43;;;5.75;;
42668;SDS011;29384;42.028;21.388;2023-06-05T01:40:35;10.75;;;5.15;;
42668;SDS011;29384;42.028;21.388;2023-06-05T01:43:01;16.30;;;4.20;;
42668;SDS011;29384;42.028;21.388;2023-06-05T01:45:26;6.05;;;4.25;;
42668;SDS011;29384;42.028;21.388;2023-06-05T01:47:52;6.20;;;5.30;;
42668;SDS011;29384;42.028;21.388;2023-06-05T01:50:18;18.77;;;5.57;;
42668;SDS011;29384;42.028;21.388;2023-06-05T01:52:44;19.63;;;5.97;;
42668;SDS011;29384;42.028;21.388;2023-06-05T01:55:15;13.88;;;5.10;;
42668;SDS011;29384;42.028;21.388;2023-06-05T01:57:41;5.25;;;4.20;;
42668;SDS011;29384;42.028;21.388;2023-06-05T02:00:07;13.90;;;5.55;;
42668;SDS011;29384;42.028;21.388;2023-06-05T02:02:37;9.18;;;5.90;;
42668;SDS011;29384;42.028;21.388;2023-06-05T02:05:06;10.90;;;4.25;;
42668;SDS011;29384;42.028;21.388;2023-06-05T02:10:34;9.05;;;5.70;;
42668;SDS011;29384;42.028;21.388;2023-06-05T02:13:00;11.05;;;4.60;;
42668;SDS011;29384;42.028;21.388;2023-06-05T02:15:25;13.15;;;4.55;;
42668;SDS011;29384;42.028;21.388;2023-06-05T02:17:51;4.78;;;4.20;;
42668;SDS011;29384;42.028;21.388;2023-06-05T02:20:19;5.03;;;3.78;;
42668;SDS011;29384;42.028;21.388;2023-06-05T02:25:47;20.42;;;5.38;;
42668;SDS011;29384;42.028;21.388;2023-06-05T02:28:12;9.20;;;5.63;;
42668;SDS011;29384;42.028;21.388;2023-06-05T02:30:38;7.88;;;4.72;;
42668;SDS011;29384;42.028;21.388;2023-06-05T02:33:03;5.05;;;3.92;;
42668;SDS011;29384;42.028;21.388;2023-06-05T02:35:28;10.02;;;5.72;;
42668;SDS011;29384;42.028;21.388;2023-06-05T02:40:57;7.13;;;4.47;;
42668;SDS011;29384;42.028;21.388;2023-06-05T02:43:22;7.50;;;4.65;;
42668;SDS011;29384;42.028;21.388;2023-06-05T02:45:47;17.15;;;4.55;;
42668;SDS011;29384;42.028;21.388;2023-06-05T02:48:13;9.27;;;4.75;;
42668;SDS011;29384;42.028;21.388;2023-06-05T02:50:38;5.70;;;4.82;;
42668;SDS011;29384;42.028;21.388;2023-06-05T02:56:06;7.18;;;4.85;;
42668;SDS011;29384;42.028;21.388;2023-06-05T02:58:31;10.77;;;5.15;;
42668;SDS011;29384;42.028;21.388;2023-06-05T03:00:59;11.90;;;5.30;;
42668;SDS011;29384;42.028;21.388;2023-06-05T03:03:30;6.20;;;4.63;;
42668;SDS011;29384;42.028;21.388;2023-06-05T03:05:59;11.13;;;4.07;;
42668;SDS011;29384;42.028;21.388;2023-06-05T03:08:35;8.25;;;6.20;;
42668;SDS011;29384;42.028;21.388;2023-06-05T03:11:01;7.90;;;4.13;;
42668;SDS011;29384;42.028;21.388;2023-06-05T03:13:27;13.15;;;4.75;;
42668;SDS011;29384;42.028;21.388;2023-06-05T03:15:52;15.57;;;5.25;;
42668;SDS011;29384;42.028;21.388;2023-06-05T03:18:21;20.02;;;5.55;;
42668;SDS011;29384;42.028;21.388;2023-06-05T03:20:47;13.23;;;5.57;;
42668;SDS011;29384;42.028;21.388;2023-06-05T03:26:15;22.55;;;7.63;;
42668;SDS011;29384;42.028;21.388;2023-06-05T03:28:41;22.13;;;11.80;;
42668;SDS011;29384;42.028;21.388;2023-06-05T03:31:07;29.10;;;12.85;;
42668;SDS011;29384;42.028;21.388;2023-06-05T03:33:34;68.78;;;24.63;;
42668;SDS011;29384;42.028;21.388;2023-06-05T03:35:59;82.55;;;30.85;;
42668;SDS011;29384;42.028;21.388;2023-06-05T03:38:25;63.30;;;27.70;;
42668;SDS011;29384;42.028;21.388;2023-06-05T03:40:50;61.53;;;24.13;;
42668;SDS011;29384;42.028;21.388;2023-06-05T03:43:15;64.75;;;21.98;;
42668;SDS011;29384;42.028;21.388;2023-06-05T03:45:41;63.40;;;27.20;;
42668;SDS011;29384;42.028;21.388;2023-06-05T03:48:06;73.47;;;27.20;;
42668;SDS011;29384;42.028;21.388;2023-06-05T03:50:32;62.20;;;26.25;;
42668;SDS011;29384;42.028;21.388;2023-06-05T03:56:01;60.38;;;23.92;;
42668;SDS011;29384;42.028;21.388;2023-06-05T03:58:28;56.53;;;23.67;;
42668;SDS011;29384;42.028;21.388;2023-06-05T04:00:54;53.53;;;21.75;;
42668;SDS011;29384;42.028;21.388;2023-06-05T04:03:19;41.67;;;16.70;;
42668;SDS011;29384;42.028;21.388;2023-06-05T04:05:45;20.52;;;11.35;;
42668;SDS011;29384;42.028;21.388;2023-06-05T04:11:13;10.02;;;6.47;;
42668;SDS011;29384;42.028;21.388;2023-06-05T04:13:39;6.43;;;5.53;;
42668;SDS011;29384;42.028;21.388;2023-06-05T04:16:04;14.07;;;6.93;;
42668;SDS011;29384;42.028;21.388;2023-06-05T04:18:30;9.88;;;7.40;;
42668;SDS011;29384;42.028;21.388;2023-06-05T04:20:55;8.00;;;6.47;;
42668;SDS011;29384;42.028;21.388;2023-06-05T04:26:23;11.40;;;7.03;;
42668;SDS011;29384;42.028;21.388;2023-06-05T04:28:51;10.98;;;7.75;;
42668;SDS011;29384;42.028;21.388;2023-06-05T04:31:16;9.43;;;7.72;;
42668;SDS011;29384;42.028;21.388;2023-06-05T04:33:41;31.70;;;7.82;;
42668;SDS011;29384;42.028;21.388;2023-06-05T04:36:07;13.82;;;9.43;;
42668;SDS011;29384;42.028;21.388;2023-06-05T04:41:34;18.75;;;12.25;;
42668;SDS011;29384;42.028;21.388;2023-06-05T04:44:01;24.65;;;12.55;;
42668;SDS011;29384;42.028;21.388;2023-06-05T04:46:27;29.05;;;14.02;;
42668;SDS011;29384;42.028;21.388;2023-06-05T04:48:53;23.50;;;14.88;;
42668;SDS011;29384;42.028;21.388;2023-06-05T04:51:20;27.35;;;11.52;;
42668;SDS011;29384;42.028;21.388;2023-06-05T04:56:48;21.33;;;9.60;;
42668;SDS011;29384;42.028;21.388;2023-06-05T04:59:14;26.58;;;11.48;;
42668;SDS011;29384;42.028;21.388;2023-06-05T05:01:40;18.30;;;8.32;;
42668;SDS011;29384;42.028;21.388;2023-06-05T05:04:06;22.17;;;11.18;;
42668;SDS011;29384;42.028;21.388;2023-06-05T05:06:31;16.70;;;9.48;;
42668;SDS011;29384;42.028;21.388;2023-06-05T05:11:59;25.15;;;12.77;;
42668;SDS011;29384;42.028;21.388;2023-06-05T05:14:25;17.42;;;10.18;;
42668;SDS011;29384;42.028;21.388;2023-06-05T05:16:53;15.38;;;9.35;;
42668;SDS011;29384;42.028;21.388;2023-06-05T05:19:20;13.45;;;8.45;;
42668;SDS011;29384;42.028;21.388;2023-06-05T05:21:46;34.20;;;9.18;;
42668;SDS011;29384;42.028;21.388;2023-06-05T05:24:13;17.95;;;9.02;;
42668;SDS011;29384;42.028;21.388;2023-06-05T05:26:38;15.27;;;7.47;;
42668;SDS011;29384;42.028;21.388;2023-06-05T05:29:05;10.48;;;7.25;;
42668;SDS011;29384;42.028;21.388;2023-06-05T05:31:30;8.75;;;5.57;;
42668;SDS011;29384;42.028;21.388;2023-06-05T05:33:55;10.70;;;5.72;;
42668;SDS011;29384;42.028;21.388;2023-06-05T05:36:21;8.00;;;5.53;;
42668;SDS011;29384;42.028;21.388;2023-06-05T05:41:49;6.20;;;4.35;;
42668;SDS011;29384;42.028;21.388;2023-06-05T05:44:14;8.43;;;4.05;;
42668;SDS011;29384;42.028;21.388;2023-06-05T05:46:40;4.88;;;4.53;;
42668;SDS011;29384;42.028;21.388;2023-06-05T05:49:05;5.20;;;4.47;;
42668;SDS011;29384;42.028;21.388;2023-06-05T05:51:31;4.53;;;4.13;;
42668;SDS011;29384;42.028;21.388;2023-06-05T05:56:59;9.80;;;4.18;;
42668;SDS011;29384;42.028;21.388;2023-06-05T05:59:24;7.15;;;4.38;;
42668;SDS011;29384;42.028;21.388;2023-06-05T06:01:50;19.10;;;3.95;;
42668;SDS011;29384;42.028;21.388;2023-06-05T06:04:18;3.47;;;3.20;;
42668;SDS011;29384;42.028;21.388;2023-06-05T06:06:44;14.20;;;4.60;;
42668;SDS011;29384;42.028;21.388;2023-06-05T06:12:14;16.23;;;4.63;;
42668;SDS011;29384;42.028;21.388;2023-06-05T06:14:40;4.03;;;3.72;;
42668;SDS011;29384;42.028;21.388;2023-06-05T06:17:05;11.50;;;4.82;;
42668;SDS011;29384;42.028;21.388;2023-06-05T06:19:35;20.13;;;4.80;;
42668;SDS011;29384;42.028;21.388;2023-06-05T06:22:00;6.10;;;4.15;;
42668;SDS011;29384;42.028;21.388;2023-06-05T06:24:26;6.10;;;3.63;;
42668;SDS011;29384;42.028;21.388;2023-06-05T06:26:51;9.18;;;4.30;;
42668;SDS011;29384;42.028;21.388;2023-06-05T06:29:20;7.15;;;4.47;;
42668;SDS011;29384;42.028;21.388;2023-06-05T06:31:47;8.50;;;4.35;;
42668;SDS011;29384;42.028;21.388;2023-06-05T06:34:14;4.30;;;4.00;;
42668;SDS011;29384;42.028;21.388;2023-06-05T06:36:39;4.47;;;4.10;;
42668;SDS011;29384;42.028;21.388;2023-06-05T06:42:08;6.97;;;4.25;;
42668;SDS011;29384;42.028;21.388;2023-06-05T06:44:35;6.63;;;4.07;;
42668;SDS011;29384;42.028;21.388;2023-06-05T06:47:00;6.35;;;4.45;;
42668;SDS011;29384;42.028;21.388;2023-06-05T06:49:26;5.32;;;4.82;;
42668;SDS011;29384;42.028;21.388;2023-06-05T06:51:51;8.25;;;4.00;;
42668;SDS011;29384;42.028;21.388;2023-06-05T06:57:19;8.23;;;3.85;;
42668;SDS011;29384;42.028;21.388;2023-06-05T06:59:44;5.03;;;4.07;;
42668;SDS011;29384;42.028;21.388;2023-06-05T07:02:20;6.15;;;3.58;;
42668;SDS011;29384;42.028;21.388;2023-06-05T07:04:46;5.53;;;3.55;;
42668;SDS011;29384;42.028;21.388;2023-06-05T07:07:16;14.55;;;3.80;;
42668;SDS011;29384;42.028;21.388;2023-06-05T07:12:44;4.20;;;3.95;;
42668;SDS011;29384;42.028;21.388;2023-06-05T07:15:09;8.35;;;4.30;;
42668;SDS011;29384;42.028;21.388;2023-06-05T07:17:34;12.07;;;3.65;;
42668;SDS011;29384;42.028;21.388;2023-06-05T07:20:00;8.25;;;4.55;;
42668;SDS011;29384;42.028;21.388;2023-06-05T07:22:25;4.32;;;3.92;;
42668;SDS011;29384;42.028;21.388;2023-06-05T07:24:53;3.92;;;3.58;;
42668;SDS011;29384;42.028;21.388;2023-06-05T07:27:18;4.75;;;4.35;;
42668;SDS011;29384;42.028;21.388;2023-06-05T07:29:44;3.78;;;3.38;;
42668;SDS011;29384;42.028;21.388;2023-06-05T07:32:10;7.45;;;2.75;;
42668;SDS011;29384;42.028;21.388;2023-06-05T07:34:35;3.45;;;3.25;;
42668;SDS011;29384;42.028;21.388;2023-06-05T07:37:00;7.72;;;3.60;;
42668;SDS011;29384;42.028;21.388;2023-06-05T07:42:29;3.45;;;3.25;;
42668;SDS011;29384;42.028;21.388;2023-06-05T07:44:54;3.15;;;2.50;;
42668;SDS011;29384;42.028;21.388;2023-06-05T07:47:20;3.40;;;3.10;;
42668;SDS011;29384;42.028;21.388;2023-06-05T07:49:55;3.00;;;2.55;;
42668;SDS011;29384;42.028;21.388;2023-06-05T07:52:21;3.35;;;3.10;;
42668;SDS011;29384;42.028;21.388;2023-06-05T07:57:49;4.60;;;3.58;;
42668;SDS011;29384;42.028;21.388;2023-06-05T08:00:17;2.72;;;2.63;;
42668;SDS011;29384;42.028;21.388;2023-06-05T08:02:43;9.43;;;2.90;;
42668;SDS011;29384;42.028;21.388;2023-06-05T08:05:08;3.15;;;2.95;;
42668;SDS011;29384;42.028;21.388;2023-06-05T08:07:34;2.88;;;2.67;;
42668;SDS011;29384;42.028;21.388;2023-06-05T08:13:02;5.00;;;3.05;;
42668;SDS011;29384;42.028;21.388;2023-06-05T08:15:28;5.70;;;3.67;;
42668;SDS011;29384;42.028;21.388;2023-06-05T08:17:53;3.92;;;3.63;;
42668;SDS011;29384;42.028;21.388;2023-06-05T08:20:18;3.90;;;3.70;;
42668;SDS011;29384;42.028;21.388;2023-06-05T08:22:44;3.50;;;3.20;;
42668;SDS011;29384;42.028;21.388;2023-06-05T08:28:12;2.88;;;2.78;;
42668;SDS011;29384;42.028;21.388;2023-06-05T08:30:37;3.95;;;3.75;;
42668;SDS011;29384;42.028;21.388;2023-06-05T08:33:03;3.25;;;2.95;;
42668;SDS011;29384;42.028;21.388;2023-06-05T08:35:28;6.10;;;4.35;;
42668;SDS011;29384;42.028;21.388;2023-06-05T08:37:54;5.00;;;3.53;;
42668;SDS011;29384;42.028;21.388;2023-06-05T08:43:21;4.13;;;3.78;;
42668;SDS011;29384;42.028;21.388;2023-06-05T08:45:48;3.42;;;3.22;;
42668;SDS011;29384;42.028;21.388;2023-06-05T08:48:16;4.90;;;4.18;;
42668;SDS011;29384;42.028;21.388;2023-06-05T08:50:43;3.47;;;3.33;;
42668;SDS011;29384;42.028;21.388;2023-06-05T08:53:09;3.65;;;3.50;;
42668;SDS011;29384;42.028;21.388;2023-06-05T08:55:38;4.68;;;3.63;;
42668;SDS011;29384;42.028;21.388;2023-06-05T08:58:03;6.28;;;3.72;;
42668;SDS011;29384;42.028;21.388;2023-06-05T09:00:29;4.78;;;3.55;;
42668;SDS011;29384;42.028;21.388;2023-06-05T09:02:54;4.97;;;4.53;;
42668;SDS011;29384;42.028;21.388;2023-06-05T09:05:21;28.15;;;4.65;;
42668;SDS011;29384;42.028;21.388;2023-06-05T09:07:46;4.20;;;3.38;;
42668;SDS011;29384;42.028;21.388;2023-06-05T09:13:15;4.10;;;3.70;;
42668;SDS011;29384;42.028;21.388;2023-06-05T09:15:40;7.47;;;3.65;;
42668;SDS011;29384;42.028;21.388;2023-06-05T09:18:06;4.57;;;3.72;;
42668;SDS011;29384;42.028;21.388;2023-06-05T09:20:33;3.45;;;3.20;;
42668;SDS011;29384;42.028;21.388;2023-06-05T09:23:00;4.05;;;3.58;;
42668;SDS011;29384;42.028;21.388;2023-06-05T09:28:28;6.93;;;4.18;;
42668;SDS011;29384;42.028;21.388;2023-06-05T09:30:54;3.85;;;3.30;;
42668;SDS011;29384;42.028;21.388;2023-06-05T09:33:23;3.95;;;3.65;;
42668;SDS011;29384;42.028;21.388;2023-06-05T09:36:00;5.63;;;3.67;;
42668;SDS011;29384;42.028;21.388;2023-06-05T09:38:26;4.15;;;3.70;;
42668;SDS011;29384;42.028;21.388;2023-06-05T09:41:04;3.40;;;3.20;;
42668;SDS011;29384;42.028;21.388;2023-06-05T09:43:30;4.00;;;3.80;;
42668;SDS011;29384;42.028;21.388;2023-06-05T09:45:56;3.95;;;3.45;;
42668;SDS011;29384;42.028;21.388;2023-06-05T09:48:21;3.65;;;3.55;;
42668;SDS011;29384;42.028;21.388;2023-06-05T09:50:47;4.80;;;3.33;;
42668;SDS011;29384;42.028;21.388;2023-06-05T09:53:14;6.43;;;3.63;;
42668;SDS011;29384;42.028;21.388;2023-06-05T10:01:15;5.15;;;3.10;;
42668;SDS011;29384;42.028;21.388;2023-06-05T10:03:42;3.72;;;3.42;;
42668;SDS011;29384;42.028;21.388;2023-06-05T10:06:08;2.97;;;2.88;;
42668;SDS011;29384;42.028;21.388;2023-06-05T10:08:33;4.45;;;3.30;;
42668;SDS011;29384;42.028;21.388;2023-06-05T10:14:02;3.03;;;2.83;;
42668;SDS011;29384;42.028;21.388;2023-06-05T10:16:28;3.85;;;3.55;;
42668;SDS011;29384;42.028;21.388;2023-06-05T10:18:54;3.83;;;3.50;;
42668;SDS011;29384;42.028;21.388;2023-06-05T10:21:19;4.38;;;3.97;;
42668;SDS011;29384;42.028;21.388;2023-06-05T10:35:08;6.75;;;3.35;;
42668;SDS011;29384;42.028;21.388;2023-06-05T10:40:24;6.38;;;4.10;;
42668;SDS011;29384;42.028;21.388;2023-06-05T10:42:49;3.75;;;3.35;;
42668;SDS011;29384;42.028;21.388;2023-06-05T10:45:30;4.97;;;4.03;;
42668;SDS011;29384;42.028;21.388;2023-06-05T10:50:24;4.47;;;4.17;;
42668;SDS011;29384;42.028;21.388;2023-06-05T10:52:51;3.13;;;2.92;;
42668;SDS011;29384;42.028;21.388;2023-06-05T10:55:16;14.85;;;4.75;;
42668;SDS011;29384;42.028;21.388;2023-06-05T11:02:51;5.35;;;4.13;;
42668;SDS011;29384;42.028;21.388;2023-06-05T11:05:18;5.70;;;5.18;;
42668;SDS011;29384;42.028;21.388;2023-06-05T11:07:43;4.40;;;3.60;;
42668;SDS011;29384;42.028;21.388;2023-06-05T11:15:13;9.32;;;5.47;;
42668;SDS011;29384;42.028;21.388;2023-06-05T11:17:46;5.53;;;4.00;;
42668;SDS011;29384;42.028;21.388;2023-06-05T11:27:46;8.15;;;4.82;;
42668;SDS011;29384;42.028;21.388;2023-06-05T11:30:12;4.20;;;4.03;;
42668;SDS011;29384;42.028;21.388;2023-06-05T11:32:37;5.82;;;5.22;;
42668;SDS011;29384;42.028;21.388;2023-06-05T11:35:03;5.30;;;4.88;;
42668;SDS011;29384;42.028;21.388;2023-06-05T11:37:29;5.10;;;4.68;;
42668;SDS011;29384;42.028;21.388;2023-06-05T11:39:57;5.07;;;4.78;;
42668;SDS011;29384;42.028;21.388;2023-06-05T11:42:22;4.65;;;4.45;;
42668;SDS011;29384;42.028;21.388;2023-06-05T11:44:51;5.03;;;4.35;;
42668;SDS011;29384;42.028;21.388;2023-06-05T11:47:26;4.88;;;4.55;;
42668;SDS011;29384;42.028;21.388;2023-06-05T11:49:53;4.88;;;4.57;;
42668;SDS011;29384;42.028;21.388;2023-06-05T11:52:18;4.55;;;4.18;;
42668;SDS011;29384;42.028;21.388;2023-06-05T11:54:45;9.27;;;5.05;;
42668;SDS011;29384;42.028;21.388;2023-06-05T11:57:18;5.83;;;5.30;;
42668;SDS011;29384;42.028;21.388;2023-06-05T11:59:47;3.63;;;3.53;;
42668;SDS011;29384;42.028;21.388;2023-06-05T12:02:12;4.15;;;3.95;;
42668;SDS011;29384;42.028;21.388;2023-06-05T12:04:41;5.10;;;4.68;;
42668;SDS011;29384;42.028;21.388;2023-06-05T12:07:07;4.35;;;3.95;;
42668;SDS011;29384;42.028;21.388;2023-06-05T12:09:32;3.47;;;3.28;;
42668;SDS011;29384;42.028;21.388;2023-06-05T12:15:20;4.22;;;4.00;;
42668;SDS011;29384;42.028;21.388;2023-06-05T12:17:49;4.45;;;3.90;;
42668;SDS011;29384;42.028;21.388;2023-06-05T12:20:15;4.60;;;4.22;;
42668;SDS011;29384;42.028;21.388;2023-06-05T12:22:41;4.82;;;4.43;;
42668;SDS011;29384;42.028;21.388;2023-06-05T12:25:21;4.32;;;4.05;;
42668;SDS011;29384;42.028;21.388;2023-06-05T12:27:50;7.82;;;4.43;;
42668;SDS011;29384;42.028;21.388;2023-06-05T12:30:15;4.53;;;3.92;;
42668;SDS011;29384;42.028;21.388;2023-06-05T12:32:41;3.17;;;3.03;;
42668;SDS011;29384;42.028;21.388;2023-06-05T12:35:20;4.45;;;4.05;;
42668;SDS011;29384;42.028;21.388;2023-06-05T12:37:47;4.38;;;4.18;;
42668;SDS011;29384;42.028;21.388;2023-06-05T12:40:12;4.13;;;3.92;;
42668;SDS011;29384;42.028;21.388;2023-06-05T12:42:38;3.97;;;3.78;;
42668;SDS011;29384;42.028;21.388;2023-06-05T12:45:05;5.57;;;2.95;;
42668;SDS011;29384;42.028;21.388;2023-06-05T12:47:31;3.45;;;3.30;;
42668;SDS011;29384;42.028;21.388;2023-06-05T12:49:56;3.40;;;3.30;;
42668;SDS011;29384;42.028;21.388;2023-06-05T12:52:23;4.38;;;3.42;;
42668;SDS011;29384;42.028;21.388;2023-06-05T12:54:51;2.90;;;2.80;;
42668;SDS011;29384;42.028;21.388;2023-06-05T13:00:19;3.22;;;3.03;;
42668;SDS011;29384;42.028;21.388;2023-06-05T13:02:44;3.97;;;3.65;;
42668;SDS011;29384;42.028;21.388;2023-06-05T13:05:10;6.65;;;4.32;;
42668;SDS011;29384;42.028;21.388;2023-06-05T13:07:36;4.05;;;3.83;;
42668;SDS011;29384;42.028;21.388;2023-06-05T13:10:03;4.72;;;4.32;;
42668;SDS011;29384;42.028;21.388;2023-06-05T13:12:28;3.92;;;3.70;;
42668;SDS011;29384;42.028;21.388;2023-06-05T13:14:53;5.05;;;3.00;;
42668;SDS011;29384;42.028;21.388;2023-06-05T13:17:19;3.80;;;3.47;;
42668;SDS011;29384;42.028;21.388;2023-06-05T13:19:44;24.83;;;4.88;;
42668;SDS011;29384;42.028;21.388;2023-06-05T13:22:10;4.15;;;3.90;;
42668;SDS011;29384;42.028;21.388;2023-06-05T13:24:35;3.38;;;3.28;;
42668;SDS011;29384;42.028;21.388;2023-06-05T13:30:03;3.70;;;3.40;;
42668;SDS011;29384;42.028;21.388;2023-06-05T13:32:29;4.28;;;3.42;;
42668;SDS011;29384;42.028;21.388;2023-06-05T13:34:55;4.00;;;3.80;;
42668;SDS011;29384;42.028;21.388;2023-06-05T13:37:22;5.95;;;3.15;;
42668;SDS011;29384;42.028;21.388;2023-06-05T13:39:47;3.85;;;3.60;;
42668;SDS011;29384;42.028;21.388;2023-06-05T13:45:15;8.48;;;3.25;;
42668;SDS011;29384;42.028;21.388;2023-06-05T13:47:40;6.68;;;4.25;;
42668;SDS011;29384;42.028;21.388;2023-06-05T13:50:06;3.58;;;3.28;;
42668;SDS011;29384;42.028;21.388;2023-06-05T13:52:32;2.92;;;2.83;;
42668;SDS011;29384;42.028;21.388;2023-06-05T13:54:57;3.63;;;3.33;;
42668;SDS011;29384;42.028;21.388;2023-06-05T14:00:25;3.40;;;3.13;;
42668;SDS011;29384;42.028;21.388;2023-06-05T14:02:50;3.60;;;3.40;;
42668;SDS011;29384;42.028;21.388;2023-06-05T14:05:15;3.15;;;2.97;;
42668;SDS011;29384;42.028;21.388;2023-06-05T14:07:41;3.30;;;3.10;;
42668;SDS011;29384;42.028;21.388;2023-06-05T14:10:06;2.47;;;2.33;;
42668;SDS011;29384;42.028;21.388;2023-06-05T14:15:34;2.47;;;2.28;;
42668;SDS011;29384;42.028;21.388;2023-06-05T14:18:01;2.42;;;2.22;;
42668;SDS011;29384;42.028;21.388;2023-06-05T14:20:26;2.10;;;2.00;;
42668;SDS011;29384;42.028;21.388;2023-06-05T14:22:52;1.85;;;1.70;;
42668;SDS011;29384;42.028;21.388;2023-06-05T14:25:17;2.60;;;2.40;;
42668;SDS011;29384;42.028;21.388;2023-06-05T14:30:45;2.20;;;1.80;;
42668;SDS011;29384;42.028;21.388;2023-06-05T14:33:11;1.67;;;1.58;;
42668;SDS011;29384;42.028;21.388;2023-06-05T14:35:36;1.98;;;1.98;;
42668;SDS011;29384;42.028;21.388;2023-06-05T14:38:02;3.42;;;2.88;;
42668;SDS011;29384;42.028;21.388;2023-06-05T14:40:27;2.55;;;2.45;;
42668;SDS011;29384;42.028;21.388;2023-06-05T14:45:55;2.42;;;2.30;;
42668;SDS011;29384;42.028;21.388;2023-06-05T14:48:22;3.15;;;2.95;;
42668;SDS011;29384;42.028;21.388;2023-06-05T14:50:47;3.97;;;2.47;;
42668;SDS011;29384;42.028;21.388;2023-06-05T14:53:12;3.10;;;2.90;;
42668;SDS011;29384;42.028;21.388;2023-06-05T14:55:38;3.40;;;3.10;;
42668;SDS011;29384;42.028;21.388;2023-06-05T14:58:03;2.00;;;2.00;;
42668;SDS011;29384;42.028;21.388;2023-06-05T15:00:30;2.95;;;2.70;;
42668;SDS011;29384;42.028;21.388;2023-06-05T15:02:56;7.95;;;2.95;;
42668;SDS011;29384;42.028;21.388;2023-06-05T15:05:21;4.25;;;3.15;;
42668;SDS011;29384;42.028;21.388;2023-06-05T15:07:46;2.05;;;2.05;;
42668;SDS011;29384;42.028;21.388;2023-06-05T15:10:12;2.20;;;2.10;;
42668;SDS011;29384;42.028;21.388;2023-06-05T15:15:41;3.65;;;2.70;;
42668;SDS011;29384;42.028;21.388;2023-06-05T15:18:07;2.95;;;2.85;;
42668;SDS011;29384;42.028;21.388;2023-06-05T15:20:33;4.38;;;3.42;;
42668;SDS011;29384;42.028;21.388;2023-06-05T15:22:58;3.50;;;3.30;;
42668;SDS011;29384;42.028;21.388;2023-06-05T15:25:23;3.85;;;2.53;;
42668;SDS011;29384;42.028;21.388;2023-06-05T15:30:52;5.90;;;3.20;;
42668;SDS011;29384;42.028;21.388;2023-06-05T15:33:18;3.63;;;2.85;;
42668;SDS011;29384;42.028;21.388;2023-06-05T15:35:44;3.28;;;3.10;;
42668;SDS011;29384;42.028;21.388;2023-06-05T15:38:11;3.55;;;2.88;;
42668;SDS011;29384;42.028;21.388;2023-06-05T15:40:36;8.38;;;3.10;;
42668;SDS011;29384;42.028;21.388;2023-06-05T15:46:04;31.85;;;3.47;;
42668;SDS011;29384;42.028;21.388;2023-06-05T15:48:30;5.18;;;3.45;;
42668;SDS011;29384;42.028;21.388;2023-06-05T15:50:55;7.20;;;3.35;;
42668;SDS011;29384;42.028;21.388;2023-06-05T15:53:22;3.30;;;3.08;;
42668;SDS011;29384;42.028;21.388;2023-06-05T15:55:48;3.45;;;3.35;;
42668;SDS011;29384;42.028;21.388;2023-06-05T16:01:15;5.28;;;3.35;;
42668;SDS011;29384;42.028;21.388;2023-06-05T16:03:41;3.22;;;3.13;;
42668;SDS011;29384;42.028;21.388;2023-06-05T16:06:06;5.88;;;3.88;;
42668;SDS011;29384;42.028;21.388;2023-06-05T16:08:32;3.58;;;3.33;;
42668;SDS011;29384;42.028;21.388;2023-06-05T16:10:57;4.65;;;3.55;;
42668;SDS011;29384;42.028;21.388;2023-06-05T16:16:28;4.55;;;4.25;;
42668;SDS011;29384;42.028;21.388;2023-06-05T16:18:53;4.80;;;3.55;;
42668;SDS011;29384;42.028;21.388;2023-06-05T16:21:19;3.42;;;3.22;;
42668;SDS011;29384;42.028;21.388;2023-06-05T16:23:44;4.03;;;3.80;;
42668;SDS011;29384;42.028;21.388;2023-06-05T16:26:10;4.05;;;3.85;;
42668;SDS011;29384;42.028;21.388;2023-06-05T16:31:38;4.35;;;3.60;;
42668;SDS011;29384;42.028;21.388;2023-06-05T16:34:10;4.63;;;3.00;;
42668;SDS011;29384;42.028;21.388;2023-06-05T16:36:36;4.28;;;3.97;;
42668;SDS011;29384;42.028;21.388;2023-06-05T16:39:02;4.28;;;3.88;;
42668;SDS011;29384;42.028;21.388;2023-06-05T16:41:28;4.47;;;3.70;;
42668;SDS011;29384;42.028;21.388;2023-06-05T16:43:53;3.80;;;3.60;;
42668;SDS011;29384;42.028;21.388;2023-06-05T16:46:19;6.05;;;4.13;;
42668;SDS011;29384;42.028;21.388;2023-06-05T16:48:47;12.73;;;4.75;;
42668;SDS011;29384;42.028;21.388;2023-06-05T16:51:12;33.90;;;4.97;;
42668;SDS011;29384;42.028;21.388;2023-06-05T16:53:38;3.88;;;3.67;;
42668;SDS011;29384;42.028;21.388;2023-06-05T16:56:03;4.03;;;3.67;;
42668;SDS011;29384;42.028;21.388;2023-06-05T17:01:31;4.53;;;4.20;;
42668;SDS011;29384;42.028;21.388;2023-06-05T17:03:56;4.47;;;3.38;;
42668;SDS011;29384;42.028;21.388;2023-06-05T17:06:22;3.28;;;3.05;;
42668;SDS011;29384;42.028;21.388;2023-06-05T17:08:47;2.90;;;2.80;;
42668;SDS011;29384;42.028;21.388;2023-06-05T17:11:13;1.77;;;1.77;;
42668;SDS011;29384;42.028;21.388;2023-06-05T17:16:41;2.70;;;2.60;;
42668;SDS011;29384;42.028;21.388;2023-06-05T17:19:06;2.88;;;2.10;;
42668;SDS011;29384;42.028;21.388;2023-06-05T17:21:32;1.73;;;1.73;;
42668;SDS011;29384;42.028;21.388;2023-06-05T17:23:58;1.80;;;1.73;;
42668;SDS011;29384;42.028;21.388;2023-06-05T17:26:23;6.13;;;2.72;;
42668;SDS011;29384;42.028;21.388;2023-06-05T17:31:53;9.65;;;3.03;;
42668;SDS011;29384;42.028;21.388;2023-06-05T17:34:20;13.68;;;2.78;;